Time;durP1;ratioP1;P1;durP2;ratioP2;P2;SDS_P1;SDS_P2;PMS_P1;PMS_P2;Temp;Humidity;BMP_temperature;BMP_pressure;BME280_temperature;BME280_humidity;BME280_pressure;Samples;Min_cycle;Max_cycle;Signal;HPM_P1;HPM_P2
2022/05/31 00:03:12;;;;;;;7.00;4.20;;;10.30;99.90;;;;;;10357603;28;20200;-80
2022/05/31 00:08:33;;;;;;;5.03;4.53;;;10.20;99.90;;;;;;10343398;28;20273;-80
2022/05/31 00:13:54;;;;;;;4.20;3.80;;;10.10;99.90;;;;;;10341902;28;20490;-79
2022/05/31 00:19:17;;;;;;;5.03;4.10;;;10.20;99.90;;;;;;10356801;28;20287;-80
2022/05/31 00:24:40;;;;;;;5.10;4.60;;;10.20;99.90;;;;;;10356703;28;20396;-82
2022/05/31 00:30:02;;;;;;;5.17;4.67;;;10.20;99.90;;;;;;10357200;28;20230;-81
2022/05/31 00:35:43;;;;;;;6.77;4.43;;;10.30;99.90;;;;;;10356120;28;20547;-80
2022/05/31 00:41:23;;;;;;;5.80;4.50;;;10.30;99.90;;;;;;10328954;28;20276;-79
2022/05/31 00:46:51;;;;;;;5.23;3.93;;;10.30;99.90;;;;;;10315834;28;20196;-79
2022/05/31 00:52:18;;;;;;;6.40;4.80;;;10.40;99.90;;;;;;10315674;28;20207;-80
2022/05/31 00:57:45;;;;;;;5.93;5.33;;;10.40;99.90;;;;;;10325839;28;20219;-81
2022/05/31 01:03:08;;;;;;;5.60;5.00;;;10.30;99.90;;;;;;10315256;28;20232;-79
2022/05/31 01:08:31;;;;;;;8.23;5.83;;;10.30;99.90;;;;;;10331085;28;20377;-82
2022/05/31 01:14:13;;;;;;;6.17;5.57;;;10.20;99.90;;;;;;10353429;28;20204;-78
2022/05/31 01:19:59;;;;;;;6.77;5.10;;;10.20;99.90;;;;;;10355729;28;20209;-81
2022/05/31 01:25:57;;;;;;;6.77;5.53;;;10.30;99.90;;;;;;10354173;28;20513;-79
2022/05/31 01:31:28;;;;;;;6.10;5.50;;;10.20;99.90;;;;;;10340799;28;20302;-80
2022/05/31 01:36:52;;;;;;;6.93;6.23;;;10.20;99.90;;;;;;10354429;28;20285;-79
2022/05/31 01:42:13;;;;;;;6.67;5.70;;;10.10;99.90;;;;;;10340013;28;20215;-79
2022/05/31 01:47:36;;;;;;;10.43;5.77;;;10.00;99.90;;;;;;10340200;28;20459;-79
2022/05/31 01:52:58;;;;;;;5.80;5.20;;;9.90;99.90;;;;;;10355184;28;20208;-81
2022/05/31 01:58:23;;;;;;;5.90;4.87;;;9.80;99.90;;;;;;10300192;28;20202;-79
2022/05/31 02:03:46;;;;;;;4.23;3.83;;;9.70;99.90;;;;;;10301309;28;20219;-79
2022/05/31 02:09:11;;;;;;;4.40;3.47;;;9.70;99.90;;;;;;10309431;28;20226;-81
2022/05/31 02:14:34;;;;;;;5.23;4.57;;;9.70;99.90;;;;;;10327894;28;20544;-83
2022/05/31 02:19:56;;;;;;;3.80;3.40;;;9.70;99.90;;;;;;10342870;28;20202;-80
2022/05/31 02:25:24;;;;;;;4.17;3.47;;;9.70;99.90;;;;;;10342227;28;20274;-79
2022/05/31 02:30:46;;;;;;;6.47;4.13;;;9.70;99.90;;;;;;10353839;28;20231;-81
2022/05/31 02:36:07;;;;;;;5.00;3.93;;;9.70;99.90;;;;;;10356878;28;20660;-82
2022/05/31 02:41:29;;;;;;;4.17;3.77;;;9.60;99.90;;;;;;10346730;28;20388;-80
2022/05/31 02:46:50;;;;;;;4.93;3.77;;;9.50;99.90;;;;;;10346525;28;20213;-80
2022/05/31 02:52:12;;;;;;;5.50;4.37;;;9.60;99.90;;;;;;10346348;28;20285;-80
2022/05/31 02:57:33;;;;;;;5.63;4.20;;;9.60;99.90;;;;;;10346133;28;20506;-81
2022/05/31 03:03:13;;;;;;;4.83;3.87;;;9.60;99.90;;;;;;10360064;28;20209;-82
2022/05/31 03:09:01;;;;;;;8.37;3.93;;;9.70;99.90;;;;;;10349198;28;20266;-79
2022/05/31 03:14:28;;;;;;;7.50;4.03;;;9.70;99.90;;;;;;10345424;28;20225;-79
2022/05/31 03:19:55;;;;;;;4.63;3.57;;;9.60;99.90;;;;;;10331547;28;20205;-79
2022/05/31 03:25:23;;;;;;;3.73;3.33;;;9.60;99.90;;;;;;10345283;28;20492;-79
2022/05/31 03:30:45;;;;;;;4.93;4.17;;;9.70;99.90;;;;;;10358795;28;20289;-79
2022/05/31 03:36:06;;;;;;;5.33;4.60;;;9.80;99.90;;;;;;10330701;28;20596;-79
2022/05/31 03:41:40;;;;;;;6.03;4.30;;;9.80;99.90;;;;;;10358294;28;20190;-79
2022/05/31 03:47:05;;;;;;;6.97;4.27;;;9.80;99.90;;;;;;10344142;28;20212;-78
2022/05/31 03:52:53;;;;;;;5.03;3.80;;;9.80;99.90;;;;;;10357445;28;20274;-81
2022/05/31 03:58:14;;;;;;;5.77;4.20;;;9.90;99.90;;;;;;10303738;28;20207;-80
2022/05/31 04:03:47;;;;;;;4.67;3.57;;;9.90;99.90;;;;;;10291677;28;20277;-80
2022/05/31 04:09:09;;;;;;;4.27;3.77;;;10.00;99.90;;;;;;10310755;28;20255;-82
2022/05/31 04:14:31;;;;;;;7.63;4.57;;;10.10;99.90;;;;;;10329959;28;20207;-80
2022/05/31 04:19:58;;;;;;;4.80;3.70;;;10.10;99.90;;;;;;10342620;28;20231;-78
2022/05/31 04:25:19;;;;;;;5.97;4.77;;;10.20;99.90;;;;;;10356782;28;20492;-79
2022/05/31 04:31:10;;;;;;;6.37;4.97;;;10.20;99.90;;;;;;10297537;28;20237;-78
2022/05/31 04:36:51;;;;;;;8.43;4.90;;;10.20;99.90;;;;;;10296890;28;20279;-80
2022/05/31 04:42:21;;;;;;;10.10;6.60;;;10.30;99.90;;;;;;10313181;28;20529;-79
2022/05/31 04:47:48;;;;;;;5.40;4.40;;;10.20;99.90;;;;;;10313116;28;20277;-78
2022/05/31 04:53:09;;;;;;;9.23;6.17;;;10.30;99.90;;;;;;10312802;28;20235;-78
2022/05/31 04:58:50;;;;;;;7.90;5.23;;;10.30;99.90;;;;;;10282365;28;20216;-78
2022/05/31 05:04:12;;;;;;;6.13;4.70;;;10.30;99.90;;;;;;10288726;28;20250;-79
2022/05/31 05:09:40;;;;;;;4.47;3.93;;;10.30;99.90;;;;;;10340426;28;20251;-79
2022/05/31 05:15:13;;;;;;;6.73;4.83;;;10.40;99.90;;;;;;10355904;28;20192;-80
2022/05/31 05:20:38;;;;;;;9.90;6.90;;;10.40;99.90;;;;;;10340585;28;20551;-79
2022/05/31 05:26:01;;;;;;;11.97;7.50;;;10.40;99.90;;;;;;10300415;28;20197;-80
2022/05/31 05:31:32;;;;;;;4.97;4.37;;;10.50;99.90;;;;;;10313932;28;20249;-82
2022/05/31 05:37:12;;;;;;;5.20;4.67;;;10.60;99.90;;;;;;10325203;28;20247;-81
2022/05/31 05:42:34;;;;;;;4.60;4.20;;;10.70;99.90;;;;;;10310226;28;20448;-81
2022/05/31 05:48:25;;;;;;;6.57;5.10;;;10.70;99.90;;;;;;10330324;28;20228;-81
2022/05/31 05:53:46;;;;;;;6.37;4.97;;;10.70;99.90;;;;;;10345936;28;20483;-81
2022/05/31 05:59:27;;;;;;;4.90;4.13;;;10.80;99.90;;;;;;10394425;28;20216;-80
2022/05/31 06:05:25;;;;;;;5.47;4.47;;;10.90;99.90;;;;;;10365802;28;20274;-81
2022/05/31 06:11:15;;;;;;;7.80;4.30;;;10.90;99.90;;;;;;10343063;28;20227;-81
2022/05/31 06:16:41;;;;;;;4.17;3.77;;;11.00;99.90;;;;;;10321421;28;20232;-80
2022/05/31 06:22:04;;;;;;;5.00;3.20;;;11.30;99.90;;;;;;10291222;28;20246;-80
2022/05/31 06:28:01;;;;;;;4.00;3.30;;;11.60;99.90;;;;;;10314374;28;20266;-80
2022/05/31 06:33:22;;;;;;;3.53;2.90;;;11.90;99.90;;;;;;10317648;28;20254;-80
2022/05/31 06:38:45;;;;;;;3.00;2.70;;;12.10;99.90;;;;;;10302862;28;20264;-80
2022/05/31 06:44:06;;;;;;;4.67;2.93;;;12.20;99.90;;;;;;10328966;28;20457;-80
2022/05/31 06:49:47;;;;;;;4.80;3.40;;;12.70;99.90;;;;;;10348838;28;20412;-80
2022/05/31 07:01:23;;;;;;;3.13;2.58;;;14.60;99.90;;;;;;10345798;28;20205;-81
2022/05/31 07:06:44;;;;;;;2.67;1.85;;;14.80;99.90;;;;;;10346211;28;20532;-80
2022/05/31 07:12:29;;;;;;;2.80;1.48;;;14.70;99.90;;;;;;10368319;28;20247;-82
2022/05/31 07:18:09;;;;;;;1.88;1.58;;;14.40;99.90;;;;;;10363845;28;20235;-83
2022/05/31 07:23:30;;;;;;;3.40;1.80;;;13.90;1.00;;;;;;10360766;28;20266;-83
2022/05/31 07:28:54;;;;;;;2.33;1.40;;;14.00;1.00;;;;;;10360708;28;20257;-83
2022/05/31 07:34:16;;;;;;;3.13;1.75;;;15.60;99.90;;;;;;10347026;28;20206;-83
2022/05/31 07:39:38;;;;;;;4.32;1.45;;;16.00;99.90;;;;;;10347490;28;20249;-83
2022/05/31 07:44:59;;;;;;;2.65;1.30;;;16.90;98.00;;;;;;10346818;28;20207;-82
2022/05/31 07:50:20;;;;;;;1.83;1.27;;;17.30;99.90;;;;;;10308768;28;20250;-82
2022/05/31 07:55:58;;;;;;;2.10;1.10;;;17.70;99.90;;;;;;10340130;28;20203;-83
2022/05/31 08:01:48;;;;;;;3.50;1.50;;;18.50;99.40;;;;;;10363934;28;20554;-82
2022/05/31 08:07:24;;;;;;;15.30;6.85;;;18.70;94.30;;;;;;10373590;28;20514;-81
2022/05/31 08:12:45;;;;;;;7.57;3.47;;;18.90;95.70;;;;;;10356445;28;20216;-80
2022/05/31 08:18:07;;;;;;;8.82;3.22;;;19.40;94.00;;;;;;10375050;28;20209;-82
2022/05/31 08:23:28;;;;;;;2.97;2.15;;;19.80;87.60;;;;;;10358254;28;20464;-81
2022/05/31 08:28:50;;;;;;;2.83;1.65;;;19.90;91.40;;;;;;10371089;28;20279;-81
2022/05/31 08:34:13;;;;;;;5.32;2.28;;;19.60;90.00;;;;;;10366637;28;20201;-81
2022/05/31 08:39:34;;;;;;;3.33;1.73;;;19.30;90.20;;;;;;10307767;28;20238;-81
2022/05/31 08:45:03;;;;;;;3.00;1.80;;;18.40;91.60;;;;;;10294171;28;20282;-81
2022/05/31 09:02:02;;;;;;;5.85;3.20;;;20.30;77.90;;;;;;10336523;28;20197;-80
2022/05/31 09:07:29;;;;;;;3.75;2.20;;;20.00;56.30;;;;;;10335989;28;20523;-81
2022/05/31 09:12:59;;;;;;;10.18;4.03;;;20.60;56.30;;;;;;10334684;28;20222;-81
2022/05/31 09:18:52;;;;;;;2.78;1.50;;;20.20;52.40;;;;;;10349373;28;20244;-80
2022/05/31 09:24:17;;;;;;;2.90;1.50;;;18.90;69.70;;;;;;10305162;28;20206;-81
2022/05/31 09:29:56;;;;;;;2.60;1.52;;;18.50;89.50;;;;;;10321804;28;20236;-84
2022/05/31 09:35:45;;;;;;;2.78;2.22;;;18.20;92.50;;;;;;10335171;28;20382;-83
2022/05/31 09:41:24;;;;;;;25.77;11.07;;;17.70;92.90;;;;;;10349112;28;20207;-81
2022/05/31 09:46:55;;;;;;;9.73;3.00;;;17.40;95.50;;;;;;10355502;28;20248;-82
2022/05/31 09:52:42;;;;;;;1.92;1.13;;;18.10;94.90;;;;;;10330317;28;20283;-82
2022/05/31 09:58:10;;;;;;;2.17;1.33;;;18.30;86.00;;;;;;10332368;28;20202;-81
2022/05/31 10:04:07;;;;;;;3.45;1.83;;;17.80;92.50;;;;;;10322065;28;20216;-81
2022/05/31 10:09:41;;;;;;;1.83;1.05;;;17.30;94.80;;;;;;10342114;28;20240;-80
2022/05/31 10:15:06;;;;;;;8.02;3.35;;;16.90;96.90;;;;;;10285803;28;20307;-80
2022/05/31 10:20:27;;;;;;;7.78;2.40;;;16.70;1.00;;;;;;10302169;28;20236;-81
2022/05/31 10:25:56;;;;;;;5.30;2.92;;;16.70;1.00;;;;;;10301126;28;20205;-84
2022/05/31 10:31:35;;;;;;;2.42;1.40;;;16.80;1.00;;;;;;10302375;28;20233;-82
2022/05/31 10:36:58;;;;;;;4.97;2.95;;;16.80;1.00;;;;;;10301850;28;20275;-80
2022/05/31 10:42:20;;;;;;;8.13;4.22;;;16.70;1.00;;;;;;10315108;28;20296;-80
2022/05/31 10:47:41;;;;;;;2.47;1.40;;;17.10;1.00;;;;;;10322150;28;20212;-81
2022/05/31 10:53:30;;;;;;;3.47;1.40;;;17.50;99.90;;;;;;10354741;28;20196;-81
2022/05/31 10:58:59;;;;;;;3.15;1.10;;;17.60;1.00;;;;;;10354129;28;20393;-81
2022/05/31 11:04:34;;;;;;;1.40;1.02;;;18.20;1.00;;;;;;10340747;28;20528;-82
2022/05/31 11:16:38;;;;;;;1.00;0.90;;;19.00;1.00;;;;;;10348713;28;20410;-81
2022/05/31 11:22:28;;;;;;;2.22;1.10;;;18.60;1.00;;;;;;10354180;28;20214;-80
2022/05/31 11:28:27;;;;;;;7.10;3.92;;;18.10;99.90;;;;;;10325682;28;20496;-82
2022/05/31 11:33:49;;;;;;;3.17;2.42;;;17.90;99.90;;;;;;10353022;28;20203;-84
2022/05/31 11:39:13;;;;;;;2.25;1.48;;;18.00;72.30;;;;;;10352983;28;20245;-80
2022/05/31 11:44:49;;;;;;;2.58;1.20;;;18.20;83.90;;;;;;10367850;28;20385;-83
2022/05/31 11:50:37;;;;;;;1.50;0.82;;;18.60;83.60;;;;;;10338664;28;20271;-84
2022/05/31 11:56:09;;;;;;;0.75;0.75;;;18.60;81.60;;;;;;10329443;28;20198;-81
2022/05/31 12:01:52;;;;;;;2.35;0.80;;;18.90;82.00;;;;;;10298004;28;20385;-81
2022/05/31 12:07:25;;;;;;;1.13;0.90;;;18.70;75.40;;;;;;10336123;28;20205;-80
2022/05/31 12:12:47;;;;;;;1.75;1.00;;;18.50;84.60;;;;;;10338325;28;20309;-83
2022/05/31 12:18:23;;;;;;;2.33;1.52;;;18.10;90.00;;;;;;10334032;28;20255;-81
2022/05/31 12:23:51;;;;;;;1.60;0.90;;;17.70;91.70;;;;;;10351124;28;20284;-80
2022/05/31 12:29:39;;;;;;;2.88;1.60;;;17.30;92.10;;;;;;10338294;28;20233;-81
2022/05/31 12:35:03;;;;;;;3.67;1.48;;;17.10;94.60;;;;;;10351091;28;20582;-82
2022/05/31 12:40:26;;;;;;;2.38;1.50;;;16.90;99.90;;;;;;10335249;28;20209;-81
2022/05/31 12:45:47;;;;;;;3.75;2.15;;;16.80;99.90;;;;;;10350563;28;20238;-81
2022/05/31 12:51:21;;;;;;;35.33;15.73;;;17.00;99.90;;;;;;10351204;28;20234;-81
2022/05/31 12:56:55;;;;;;;18.85;10.93;;;17.80;1.00;;;;;;10350142;28;20212;-82
2022/05/31 13:02:37;;;;;;;41.38;20.20;;;18.00;99.90;;;;;;10335907;28;20208;-81
2022/05/31 13:08:17;;;;;;;6.25;4.65;;;18.70;95.70;;;;;;10335160;28;20205;-81
2022/05/31 13:19:38;;;;;;;14.45;8.77;;;19.50;99.90;;;;;;10375993;28;20200;-82
2022/05/31 13:25:13;;;;;;;15.88;2.85;;;19.20;1.00;;;;;;10376520;28;20566;-82
2022/05/31 13:30:42;;;;;;;5.38;4.18;;;19.10;99.90;;;;;;10376003;28;20241;-86
2022/05/31 13:36:04;;;;;;;2.15;1.60;;;18.90;93.10;;;;;;10362684;28;20237;-84
2022/05/31 13:41:26;;;;;;;2.05;0.90;;;18.80;99.90;;;;;;10376032;28;20204;-82
2022/05/31 13:46:49;;;;;;;1.25;1.10;;;18.90;99.90;;;;;;10389447;28;20502;-82
2022/05/31 13:52:24;;;;;;;1.02;0.93;;;19.30;1.00;;;;;;10360941;28;20319;-83
2022/05/31 13:57:54;;;;;;;1.08;0.98;;;18.80;1.00;;;;;;10362348;28;20212;-82
2022/05/31 14:03:24;;;;;;;2.78;1.13;;;18.90;1.00;;;;;;10361622;28;20213;-82
2022/05/31 14:08:45;;;;;;;2.15;1.00;;;18.60;1.00;;;;;;10370342;28;20205;-83
2022/05/31 14:14:26;;;;;;;1.75;1.63;;;18.40;1.00;;;;;;10357383;28;20221;-82
2022/05/31 14:19:50;;;;;;;1.17;0.90;;;18.40;1.00;;;;;;10376181;28;20232;-83
2022/05/31 14:25:15;;;;;;;3.80;1.38;;;18.60;1.00;;;;;;10388708;28;20234;-82
2022/05/31 14:30:53;;;;;;;1.25;0.90;;;18.50;1.00;;;;;;10375775;28;20239;-82
2022/05/31 14:36:29;;;;;;;2.95;0.93;;;18.20;16.90;;;;;;10382480;28;20794;-83
2022/05/31 14:41:56;;;;;;;3.67;1.90;;;18.10;26.40;;;;;;10396650;28;20193;-82
2022/05/31 14:47:20;;;;;;;2.75;2.50;;;18.10;30.00;;;;;;10382630;28;20194;-81
2022/05/31 14:52:47;;;;;;;6.30;1.40;;;18.20;29.50;;;;;;10381388;28;20565;-82
2022/05/31 14:58:38;;;;;;;1.70;1.13;;;18.30;33.80;;;;;;10386485;28;20212;-84
2022/05/31 15:04:01;;;;;;;1.35;1.00;;;18.20;43.30;;;;;;10382019;28;20449;-82
2022/05/31 15:09:29;;;;;;;1.85;0.90;;;18.30;43.30;;;;;;10384775;28;20224;-82
2022/05/31 15:20:37;;;;;;;2.08;1.60;;;18.40;57.20;;;;;;10399636;28;20217;-81
2022/05/31 15:26:04;;;;;;;2.08;1.55;;;18.30;59.10;;;;;;10385583;28;20232;-83
2022/05/31 15:31:30;;;;;;;1.02;0.85;;;18.10;62.60;;;;;;10385217;28;20228;-81
2022/05/31 15:36:51;;;;;;;0.57;0.57;;;18.10;62.90;;;;;;10398275;28;20251;-81
2022/05/31 15:42:15;;;;;;;1.48;0.70;;;18.30;63.90;;;;;;10369920;28;20213;-81
2022/05/31 15:47:36;;;;;;;0.70;0.70;;;18.30;64.70;;;;;;10384154;28;20197;-84
2022/05/31 15:52:58;;;;;;;1.50;0.70;;;18.30;66.20;;;;;;10399626;28;20554;-82
2022/05/31 15:58:19;;;;;;;3.30;2.40;;;18.20;81.70;;;;;;10343927;28;20197;-83
2022/05/31 16:03:40;;;;;;;2.00;1.55;;;18.20;24.90;;;;;;10343995;28;20203;-83
2022/05/31 16:09:03;;;;;;;4.20;2.83;;;18.00;1.00;;;;;;10350453;28;20262;-82
2022/05/31 16:14:28;;;;;;;7.25;2.38;;;17.90;1.00;;;;;;10387372;28;20205;-82
2022/05/31 16:19:49;;;;;;;2.70;1.90;;;17.90;99.90;;;;;;10383771;28;20231;-82
2022/05/31 16:25:15;;;;;;;3.17;1.98;;;17.70;99.90;;;;;;10383764;28;20228;-82
2022/05/31 16:30:53;;;;;;;2.50;2.00;;;17.50;1.00;;;;;;10397434;28;20308;-82
2022/05/31 16:36:22;;;;;;;2.50;2.30;;;17.40;99.90;;;;;;10383124;28;20244;-82
2022/05/31 16:41:44;;;;;;;3.20;2.00;;;17.10;99.90;;;;;;10382852;28;20267;-82
2022/05/31 16:47:05;;;;;;;2.00;1.88;;;17.10;99.90;;;;;;10383291;28;20267;-82
2022/05/31 16:52:27;;;;;;;4.35;2.38;;;17.10;1.00;;;;;;10382712;28;20367;-83
2022/05/31 16:57:49;;;;;;;5.45;2.78;;;17.00;99.90;;;;;;10341455;28;20205;-82
2022/05/31 17:03:10;;;;;;;4.20;3.33;;;16.80;99.90;;;;;;10341846;28;20228;-82
2022/05/31 17:14:24;;;;;;;4.35;3.17;;;16.50;99.90;;;;;;10398119;28;20204;-81
2022/05/31 17:19:45;;;;;;;5.68;3.20;;;16.50;99.90;;;;;;10381788;28;20618;-80
2022/05/31 17:25:07;;;;;;;4.90;3.15;;;16.40;99.90;;;;;;10381616;28;20224;-80
2022/05/31 17:30:33;;;;;;;4.28;2.50;;;16.40;99.90;;;;;;10395456;28;20270;-79
2022/05/31 17:35:59;;;;;;;4.40;2.75;;;16.40;99.90;;;;;;10381093;28;20236;-82
2022/05/31 17:41:58;;;;;;;4.97;3.08;;;16.50;99.90;;;;;;10394959;28;20371;-82
2022/05/31 17:47:19;;;;;;;7.70;3.10;;;16.40;1.00;;;;;;10271549;29;20211;-82
2022/05/31 17:52:40;;;;;;;4.80;3.22;;;16.40;1.00;;;;;;10257865;29;20221;-82
2022/05/31 17:58:02;;;;;;;3.67;2.70;;;16.20;1.00;;;;;;10242105;29;20203;-82
2022/05/31 18:03:23;;;;;;;4.05;2.65;;;16.20;1.00;;;;;;10257914;29;20230;-82
2022/05/31 18:08:46;;;;;;;4.90;3.33;;;16.10;1.00;;;;;;10262350;29;20511;-82
2022/05/31 18:14:07;;;;;;;5.20;2.83;;;15.90;1.00;;;;;;10263139;29;20217;-82
2022/05/31 18:19:29;;;;;;;4.55;3.58;;;15.80;1.00;;;;;;10335551;28;20240;-82
2022/05/31 18:24:58;;;;;;;4.78;3.25;;;15.80;1.00;;;;;;10389877;28;20441;-81
2022/05/31 18:30:19;;;;;;;6.93;3.47;;;15.80;1.00;;;;;;10390904;28;20224;-81
2022/05/31 18:35:43;;;;;;;5.70;3.60;;;15.50;1.00;;;;;;10403521;28;20522;-82
2022/05/31 18:41:05;;;;;;;9.00;3.78;;;15.40;1.00;;;;;;10390661;28;20262;-82
2022/05/31 18:46:26;;;;;;;5.20;3.80;;;15.30;1.00;;;;;;10390178;28;20207;-81
2022/05/31 18:51:47;;;;;;;6.07;4.20;;;15.10;1.00;;;;;;10387707;28;20380;-81
2022/05/31 18:57:09;;;;;;;10.02;4.35;;;15.00;1.00;;;;;;10400853;28;20218;-82
2022/05/31 19:02:36;;;;;;;7.82;4.78;;;14.80;1.00;;;;;;10373227;28;20203;-82
2022/05/31 19:07:58;;;;;;;8.77;5.80;;;14.70;4.10;;;;;;10373006;28;20275;-80
2022/05/31 19:13:23;;;;;;;10.35;6.38;;;14.50;1.00;;;;;;10395041;28;20517;-82
2022/05/31 19:18:47;;;;;;;10.15;6.05;;;14.40;6.40;;;;;;10385314;28;20222;-82
2022/05/31 19:24:09;;;;;;;10.70;5.85;;;14.30;8.00;;;;;;10399841;28;20203;-82
2022/05/31 19:29:31;;;;;;;8.02;4.78;;;14.20;9.30;;;;;;10386138;28;20197;-82
2022/05/31 19:34:54;;;;;;;9.23;5.50;;;14.10;12.20;;;;;;10399316;28;20280;-81
2022/05/31 19:40:16;;;;;;;9.30;6.18;;;14.00;17.60;;;;;;10400549;28;20282;-82
2022/05/31 19:45:38;;;;;;;12.57;5.47;;;13.80;17.20;;;;;;10371851;28;20262;-82
2022/05/31 19:51:02;;;;;;;8.38;5.47;;;13.70;26.40;;;;;;10398729;28;20226;-80
2022/05/31 19:56:23;;;;;;;7.30;4.95;;;13.50;29.80;;;;;;10371073;28;20434;-82
2022/05/31 20:01:44;;;;;;;7.18;4.63;;;13.40;37.80;;;;;;10397988;28;20208;-82
2022/05/31 20:07:06;;;;;;;6.88;5.30;;;13.40;40.20;;;;;;10398684;28;20212;-81
2022/05/31 20:12:28;;;;;;;6.70;4.78;;;13.30;46.00;;;;;;10381817;28;20229;-81
2022/05/31 20:23:42;;;;;;;8.45;6.63;;;13.20;58.70;;;;;;10338136;28;20504;-81
2022/05/31 20:29:04;;;;;;;10.10;6.53;;;13.10;58.70;;;;;;10323496;28;20215;-82
2022/05/31 20:34:26;;;;;;;8.98;7.05;;;13.00;65.70;;;;;;10323933;28;20220;-82
2022/05/31 20:39:47;;;;;;;14.13;9.63;;;13.00;63.80;;;;;;10323999;28;20616;-81
2022/05/31 20:45:09;;;;;;;17.85;11.15;;;12.90;80.40;;;;;;10323622;28;20409;-82
2022/05/31 20:50:30;;;;;;;18.55;10.38;;;12.80;65.20;;;;;;10337057;28;20233;-82
2022/05/31 20:55:51;;;;;;;18.98;10.43;;;12.70;71.30;;;;;;10336527;28;20211;-79
2022/05/31 21:01:13;;;;;;;15.35;9.20;;;12.50;80.20;;;;;;10342594;28;20263;-79
2022/05/31 21:06:36;;;;;;;16.45;8.73;;;12.50;71.80;;;;;;10355402;28;20227;-80
2022/05/31 21:11:58;;;;;;;18.75;8.77;;;12.40;75.30;;;;;;10371235;28;20268;-80
2022/05/31 21:17:20;;;;;;;13.90;7.90;;;12.40;70.80;;;;;;10367591;28;20213;-82
2022/05/31 21:22:43;;;;;;;9.55;6.47;;;12.30;69.60;;;;;;10396710;28;20243;-82
2022/05/31 21:28:17;;;;;;;10.57;6.40;;;12.30;70.20;;;;;;10395572;28;20202;-82
2022/05/31 21:33:38;;;;;;;9.13;6.40;;;12.30;72.20;;;;;;10367963;28;20606;-82
2022/05/31 21:44:40;;;;;;;8.10;5.47;;;12.20;60.80;;;;;;10380760;28;20275;-80
2022/05/31 21:50:01;;;;;;;8.75;5.82;;;12.20;63.90;;;;;;10380852;28;20224;-80
2022/05/31 21:55:24;;;;;;;10.63;6.20;;;12.10;66.00;;;;;;10367130;28;20238;-79
2022/05/31 22:00:49;;;;;;;6.43;5.40;;;12.10;77.10;;;;;;10394726;28;20406;-80
2022/05/31 22:06:12;;;;;;;6.37;4.40;;;12.10;86.90;;;;;;10395658;28;20200;-81
2022/05/31 22:11:34;;;;;;;5.10;3.90;;;12.10;58.60;;;;;;10394019;28;20464;-80
2022/05/31 22:16:55;;;;;;;6.60;5.10;;;12.00;54.00;;;;;;10366894;28;20212;-80
2022/05/31 22:22:20;;;;;;;7.78;5.80;;;11.90;68.30;;;;;;10394637;28;20229;-80
2022/05/31 22:27:43;;;;;;;9.52;6.03;;;12.00;52.50;;;;;;10393992;28;20200;-80
2022/05/31 22:33:05;;;;;;;7.17;5.40;;;12.10;48.40;;;;;;10393899;28;20293;-80
2022/05/31 22:38:42;;;;;;;6.37;4.17;;;12.00;42.20;;;;;;10366419;28;20303;-79
2022/05/31 22:44:06;;;;;;;4.75;3.72;;;12.00;35.40;;;;;;10379618;28;20463;-79
2022/05/31 22:49:27;;;;;;;5.05;3.83;;;12.10;37.90;;;;;;10393579;28;20206;-79
2022/05/31 22:54:48;;;;;;;5.38;2.88;;;12.10;27.50;;;;;;10399584;28;20279;-80
2022/05/31 23:00:24;;;;;;;7.43;3.63;;;12.20;26.70;;;;;;10401261;28;20276;-79
2022/05/31 23:05:46;;;;;;;5.73;3.33;;;12.20;23.60;;;;;;10387565;28;20200;-80
2022/05/31 23:11:08;;;;;;;5.40;2.97;;;12.20;21.40;;;;;;10386239;28;20227;-79
2022/05/31 23:16:32;;;;;;;7.07;3.33;;;12.30;16.80;;;;;;10400310;28;20206;-80
2022/05/31 23:27:36;;;;;;;5.30;3.73;;;12.30;16.60;;;;;;10399736;28;20232;-79
2022/05/31 23:33:04;;;;;;;5.50;3.97;;;12.30;20.90;;;;;;10400138;28;20246;-82
2022/05/31 23:38:25;;;;;;;11.93;5.70;;;12.30;38.40;;;;;;10399831;28;20251;-82
2022/05/31 23:43:46;;;;;;;6.43;3.60;;;12.20;26.50;;;;;;10399495;28;20196;-80
2022/05/31 23:49:08;;;;;;;3.85;3.42;;;12.10;33.00;;;;;;10371873;28;20211;-82
2022/05/31 23:54:29;;;;;;;4.40;2.92;;;12.00;32.90;;;;;;10371170;28;20251;-82
2022/05/31 23:59:51;;;;;;;5.83;3.43;;;11.90;42.60;;;;;;10385293;28;20200;-81
